Conesa, Argentina
Current Conditions -  °F | °C
As of 3:00 PM on Saturday 25 Oct 2014 (Local Time) from SAAR Reporting Station
Clear Clear  
Wind Chill: 30°   Ceiling: Unl
Heat Index: 30°   Visibility: 6mi
Dew Point: 16°   Wind: 12mph
Humidity: 43%   Direction: 70°ENE
Pressure: 29.83"   Gusts: NA
Location:  33.6°S, 60.35°W
Report Text: SAAR 251800Z 07010KT CAVOK 30/16 Q1010
Loading
Personal Weather Stations






























Interactive Weather Map
Tropical Storm Tracking
New forecast layout! Learn more

10-Day Weather Forecast

Advertisements
Track Severe Weather on mobile